createdAt,value
2023-03-30T13:49:11.251Z,3.00
2023-03-30T13:51:42.604Z,2.90
2023-03-30T13:54:23.992Z,3.52
2023-03-30T13:56:59.591Z,3.77
2023-03-30T13:59:32.244Z,3.02
2023-03-30T14:04:37.811Z,3.10
2023-03-30T14:07:17.408Z,3.20
2023-03-30T14:10:04.961Z,2.85
2023-03-30T14:12:36.503Z,3.20
2023-03-30T14:15:17.830Z,3.30
2023-03-30T14:17:53.035Z,2.70
2023-03-30T14:20:28.807Z,2.35
2023-03-30T14:23:00.464Z,2.55
2023-03-30T14:25:35.341Z,2.60
2023-03-30T14:28:11.269Z,3.12
2023-03-30T14:30:42.449Z,3.42
2023-03-30T14:33:13.840Z,2.62
2023-03-30T14:35:45.993Z,2.90
2023-03-30T14:38:18.528Z,2.83
2023-03-30T14:40:48.191Z,2.72
2023-03-30T14:43:21.101Z,2.65
2023-03-30T14:45:51.549Z,2.15
2023-03-30T14:48:29.917Z,2.67
2023-03-30T14:50:59.992Z,2.17
2023-03-30T14:53:30.270Z,2.33
2023-03-30T14:56:01.050Z,1.90
2023-03-30T14:58:32.312Z,2.33
2023-03-30T15:01:03.673Z,2.42
2023-03-30T15:03:35.022Z,2.27
2023-03-30T15:06:07.328Z,2.33
2023-03-30T15:08:41.106Z,2.77
2023-03-30T15:11:13.135Z,2.60
2023-03-30T15:13:52.560Z,3.02
2023-03-30T15:16:29.718Z,2.75
2023-03-30T15:19:02.160Z,2.33
2023-03-30T15:21:34.080Z,2.90
2023-03-30T15:24:12.133Z,3.45
2023-03-30T15:26:44.631Z,3.50
2023-03-30T15:29:17.066Z,4.05
2023-03-30T15:31:46.769Z,3.85
2023-03-30T15:34:18.301Z,3.80
2023-03-30T15:36:54.376Z,4.75
2023-03-30T15:39:27.930Z,4.10
2023-03-30T15:42:01.522Z,3.30
2023-03-30T15:44:32.727Z,3.72
2023-03-30T15:47:02.733Z,3.40
2023-03-30T15:49:37.981Z,3.80
2023-03-30T15:52:10.761Z,3.08
2023-03-30T15:54:46.089Z,2.92
2023-03-30T15:57:27.313Z,3.47
2023-03-30T16:00:02.263Z,3.30
2023-03-30T16:02:41.281Z,3.30
2023-03-30T16:05:22.712Z,3.55
2023-03-30T16:07:52.062Z,3.33
2023-03-30T16:10:27.388Z,3.87
2023-03-30T16:12:57.584Z,3.15
2023-03-30T16:15:29.577Z,3.02
2023-03-30T16:17:58.930Z,3.65
2023-03-30T16:20:31.282Z,3.25
2023-03-30T16:23:00.639Z,2.65
2023-03-30T16:25:44.262Z,2.90
2023-03-30T16:28:01.483Z,3.00
2023-03-30T16:30:36.427Z,3.95
2023-03-30T16:33:06.413Z,3.42
2023-03-30T16:35:36.254Z,2.90
2023-03-30T16:38:05.571Z,4.25
2023-03-30T16:40:42.752Z,4.15
2023-03-30T16:43:11.525Z,3.10
2023-03-30T16:45:41.084Z,3.22
2023-03-30T16:48:15.011Z,2.47
2023-03-30T16:50:46.656Z,2.37
2023-03-30T16:53:16.064Z,2.37
2023-03-30T16:55:45.970Z,2.72
2023-03-30T16:58:16.363Z,2.40
2023-03-30T17:00:54.372Z,2.45
2023-03-30T17:03:23.606Z,2.40
2023-03-30T17:05:53.059Z,2.83
2023-03-30T17:08:24.543Z,2.83
2023-03-30T17:10:56.647Z,3.50
2023-03-30T17:13:26.005Z,2.80
2023-03-30T17:15:55.413Z,2.72
2023-03-30T17:18:25.616Z,2.87
2023-03-30T17:20:56.703Z,3.00
2023-03-30T17:23:28.968Z,2.85
2023-03-30T17:26:00.151Z,2.72
2023-03-30T17:28:32.545Z,2.22
2023-03-30T17:31:04.449Z,3.05
2023-03-30T17:33:35.539Z,3.30
2023-03-30T17:36:13.689Z,2.67
2023-03-30T17:38:43.847Z,2.33
2023-03-30T17:41:14.312Z,2.70
2023-03-30T17:43:44.476Z,2.47
2023-03-30T17:46:15.027Z,2.83
2023-03-30T17:48:44.557Z,2.55
2023-03-30T17:51:13.916Z,2.62
2023-03-30T17:53:43.246Z,2.08
2023-03-30T17:56:14.032Z,2.00
2023-03-30T17:58:43.817Z,2.30
2023-03-30T18:01:13.841Z,2.52
2023-03-30T18:03:44.828Z,2.65
2023-03-30T18:06:14.501Z,2.65
2023-03-30T18:08:44.186Z,2.25
2023-03-30T18:11:13.595Z,2.12
2023-03-30T18:13:42.903Z,2.98
2023-03-30T18:16:13.078Z,2.12
2023-03-30T18:18:42.507Z,2.37
2023-03-30T18:21:12.281Z,2.27
2023-03-30T18:23:42.109Z,2.60
2023-03-30T18:26:13.470Z,2.20
2023-03-30T18:28:44.284Z,2.25
2023-03-30T18:31:14.023Z,2.35
2023-03-30T18:33:43.328Z,2.25
2023-03-30T18:36:13.652Z,2.05
2023-03-30T18:38:43.050Z,2.05
2023-03-30T18:41:15.414Z,2.10
2023-03-30T18:43:44.697Z,2.40
2023-03-30T18:46:14.743Z,2.37
2023-03-30T18:48:44.112Z,2.90
2023-03-30T18:51:13.731Z,1.90
2023-03-30T18:53:43.233Z,2.50
2023-03-30T18:56:14.347Z,2.20
2023-03-30T18:58:43.929Z,2.42
2023-03-30T19:01:13.797Z,2.08
2023-03-30T19:03:45.040Z,2.20
2023-03-30T19:06:18.342Z,2.20
2023-03-30T19:08:47.888Z,2.25
2023-03-30T19:11:20.175Z,2.02
2023-03-30T19:13:50.040Z,3.00
2023-03-30T19:16:20.195Z,2.65
2023-03-30T19:18:49.841Z,2.75
2023-03-30T19:21:19.540Z,2.65
2023-03-30T19:23:50.077Z,2.50
2023-03-30T19:26:19.355Z,2.92
2023-03-30T19:28:49.074Z,2.47
2023-03-30T19:31:18.324Z,3.27
2023-03-30T19:33:47.970Z,2.58
2023-03-30T19:36:17.221Z,2.80
2023-03-30T19:38:46.543Z,3.98
2023-03-30T19:41:16.381Z,3.55
2023-03-30T19:43:45.770Z,2.58
2023-03-30T19:46:15.084Z,3.30
2023-03-30T19:48:44.420Z,4.08
2023-03-30T19:51:13.701Z,3.60
2023-03-30T19:53:43.031Z,3.95
2023-03-30T19:56:12.781Z,3.02
2023-03-30T19:58:42.225Z,2.50
2023-03-30T20:01:11.712Z,3.27
2023-03-30T20:03:41.251Z,2.72
2023-03-30T20:06:13.904Z,2.85
2023-03-30T20:11:13.826Z,3.05
2023-03-30T20:13:44.714Z,2.85
2023-03-30T20:16:17.248Z,2.90
2023-03-30T20:21:18.723Z,3.40
2023-03-30T20:23:48.298Z,3.17
2023-03-30T20:26:19.463Z,3.12
2023-03-30T20:28:48.909Z,3.47
2023-03-30T20:31:18.901Z,3.42
2023-03-30T20:33:48.361Z,3.08
2023-03-30T20:36:17.665Z,3.45
2023-03-30T20:38:47.171Z,3.40
2023-03-30T20:41:17.781Z,3.33
2023-03-30T20:43:56.272Z,4.80
2023-03-30T20:48:59.213Z,3.77
2023-03-30T20:51:29.986Z,3.45
2023-03-30T20:54:02.068Z,3.15
2023-03-30T20:56:34.727Z,3.67
2023-03-30T20:59:13.028Z,3.35
2023-03-30T21:01:47.388Z,3.00
2023-03-30T21:04:20.570Z,3.52
2023-03-30T21:06:59.358Z,4.40
2023-03-30T21:09:32.643Z,4.33
2023-03-30T21:12:08.556Z,4.00
2023-03-30T21:14:42.888Z,4.20
2023-03-30T21:17:14.595Z,4.15
2023-03-30T21:19:45.005Z,3.60
2023-03-30T21:22:14.463Z,2.92
2023-03-30T21:24:45.391Z,3.55
2023-03-30T21:27:16.872Z,3.22
2023-03-30T21:29:47.780Z,4.37
2023-03-30T21:32:17.321Z,3.10
2023-03-30T21:34:46.805Z,3.80
2023-03-30T21:37:16.228Z,4.65
2023-03-30T21:39:46.763Z,3.45
2023-03-30T21:42:17.919Z,4.08
2023-03-30T21:45:12.162Z,3.52
2023-03-30T21:47:41.886Z,4.00
2023-03-30T21:50:12.166Z,3.42
2023-03-30T21:52:41.575Z,3.67
2023-03-30T21:55:11.240Z,3.33
2023-03-30T21:57:40.514Z,3.10
2023-03-30T22:00:11.651Z,3.47
2023-03-30T22:02:43.949Z,3.40
2023-03-30T22:05:13.318Z,3.33
2023-03-30T22:07:42.659Z,3.75
2023-03-30T22:10:12.497Z,3.00
2023-03-30T22:12:41.871Z,2.92
2023-03-30T22:15:11.922Z,3.45
2023-03-30T22:17:45.800Z,2.90
2023-03-30T22:20:16.898Z,3.40
2023-03-30T22:22:46.484Z,3.40
2023-03-30T22:25:18.099Z,3.67
2023-03-30T22:27:47.530Z,3.30
2023-03-30T22:30:17.426Z,3.77
2023-03-30T22:32:46.948Z,3.05
2023-03-30T22:35:16.378Z,3.12
2023-03-30T22:37:45.670Z,2.80
2023-03-30T22:40:15.559Z,3.10
2023-03-30T22:42:44.862Z,3.45
2023-03-30T22:45:15.768Z,3.22
2023-03-30T22:47:45.444Z,3.12
2023-03-30T22:50:14.934Z,3.00
2023-03-30T22:52:44.544Z,2.62
2023-03-30T22:55:14.190Z,3.20
2023-03-30T22:57:43.545Z,3.37
2023-03-30T23:00:15.656Z,2.70
2023-03-30T23:02:45.447Z,2.90
2023-03-30T23:05:15.165Z,2.92
2023-03-30T23:07:45.993Z,2.87
2023-03-30T23:10:17.909Z,2.75
2023-03-30T23:12:47.549Z,2.72
2023-03-30T23:15:18.622Z,2.83
2023-03-30T23:17:47.965Z,2.90
2023-03-30T23:20:18.112Z,2.58
2023-03-30T23:22:49.219Z,2.87
2023-03-30T23:25:18.658Z,2.65
2023-03-30T23:27:48.227Z,3.10
2023-03-30T23:30:17.763Z,3.12
2023-03-30T23:32:47.188Z,2.42
2023-03-30T23:35:16.588Z,2.92
2023-03-30T23:37:46.186Z,2.47
2023-03-30T23:40:16.204Z,2.52
2023-03-30T23:42:45.554Z,3.00
2023-03-30T23:45:15.052Z,2.90
2023-03-30T23:47:44.509Z,2.33
2023-03-30T23:50:13.785Z,2.37
2023-03-30T23:52:43.046Z,2.83
2023-03-30T23:55:12.868Z,2.70
2023-03-30T23:57:42.148Z,2.60
